Time;durP1;ratioP1;P1;durP2;ratioP2;P2;SDS_P1;SDS_P2;PMS_P1;PMS_P2;Temp;Humidity;BMP_temperature;BMP_pressure;BME280_temperature;BME280_humidity;BME280_pressure;Samples;Min_cycle;Max_cycle;Signal;HPM_P1;HPM_P2
2021/05/01 00:01:57;;;;;;;49.23;31.40;;;;;;;9.03;68.83;96290.53;5031504;28;20215;-66
2021/05/01 00:04:23;;;;;;;44.17;30.37;;;;;;;8.95;69.17;96280.88;5032074;28;20207;-67
2021/05/01 00:06:49;;;;;;;44.10;31.10;;;;;;;9.04;68.59;96293.00;5032589;28;20858;-67
2021/05/01 00:09:14;;;;;;;45.23;31.67;;;;;;;8.95;69.59;96287.94;5032178;28;20184;-67
2021/05/01 00:11:40;;;;;;;46.40;32.37;;;;;;;8.87;69.96;96286.97;5032241;28;20455;-66
2021/05/01 00:14:05;;;;;;;49.30;31.50;;;;;;;9.11;68.59;96298.38;5031258;28;20362;-66
2021/05/01 00:16:32;;;;;;;45.40;31.03;;;;;;;9.17;68.52;96299.50;5032276;28;20188;-66
2021/05/01 00:18:58;;;;;;;45.07;30.83;;;;;;;9.26;68.38;96302.94;5030797;28;20246;-67
2021/05/01 00:21:24;;;;;;;48.50;32.00;;;;;;;9.02;69.09;96294.13;5030751;28;20561;-66
2021/05/01 00:23:50;;;;;;;48.37;31.70;;;;;;;9.21;68.98;96295.56;5031896;28;20426;-67
2021/05/01 00:26:16;;;;;;;45.77;31.13;;;;;;;9.32;68.15;96295.25;5031933;28;20835;-67
2021/05/01 00:28:42;;;;;;;48.60;32.60;;;;;;;9.31;67.44;96287.53;5031869;28;20646;-67
2021/05/01 00:31:08;;;;;;;44.07;30.53;;;;;;;9.37;67.77;96287.69;5031678;28;20261;-67
2021/05/01 00:33:36;;;;;;;47.50;29.70;;;;;;;9.42;67.18;96273.31;5031805;28;20502;-68
2021/05/01 00:36:02;;;;;;;43.80;30.30;;;;;;;9.46;67.49;96277.19;5030697;28;20881;-66
2021/05/01 00:38:27;;;;;;;46.20;30.60;;;;;;;9.45;67.22;96273.78;5030709;28;20438;-67
2021/05/01 00:40:53;;;;;;;46.20;30.13;;;;;;;9.44;67.37;96276.59;5031587;28;20446;-68
2021/05/01 00:43:19;;;;;;;47.13;31.60;;;;;;;8.82;69.22;96281.41;5031670;28;20643;-67
2021/05/01 00:45:44;;;;;;;44.80;30.50;;;;;;;9.11;68.56;96276.63;5032075;28;20194;-67
2021/05/01 00:48:10;;;;;;;43.10;30.40;;;;;;;9.17;68.53;96268.13;5033504;28;20190;-66
2021/05/01 00:50:36;;;;;;;45.87;30.37;;;;;;;9.26;68.22;96274.19;5033363;28;20199;-67
2021/05/01 00:53:03;;;;;;;47.70;31.83;;;;;;;9.33;67.87;96270.69;5030089;28;20200;-68
2021/05/01 00:55:30;;;;;;;47.63;31.17;;;;;;;9.28;68.02;96269.56;5031209;28;20536;-66
2021/05/01 00:57:55;;;;;;;50.20;31.80;;;;;;;9.38;67.91;96263.19;5030889;28;20469;-67
2021/05/01 01:00:52;;;;;;;46.27;30.93;;;;;;;9.31;67.65;96262.22;5034541;28;20933;-69
2021/05/01 01:03:18;;;;;;;45.67;29.93;;;;;;;9.28;67.43;96269.56;5029971;28;20187;-67
2021/05/01 01:05:44;;;;;;;47.43;32.50;;;;;;;8.85;69.48;96270.63;5034356;28;20480;-67
2021/05/01 01:08:09;;;;;;;49.80;32.67;;;;;;;9.20;68.68;96273.84;5036070;28;20187;-67
2021/05/01 01:10:35;;;;;;;49.17;30.70;;;;;;;8.91;70.01;96282.22;5033802;28;20187;-67
2021/05/01 01:13:00;;;;;;;49.33;32.00;;;;;;;8.78;70.44;96277.47;5035529;28;20219;-67
2021/05/01 01:15:29;;;;;;;48.50;32.70;;;;;;;8.72;70.62;96278.94;5034216;28;20276;-66
2021/05/01 01:17:55;;;;;;;47.60;31.23;;;;;;;8.69;70.66;96273.22;5035409;28;20188;-66
2021/05/01 01:20:21;;;;;;;46.73;30.87;;;;;;;8.69;70.72;96268.84;5035614;28;20843;-68
2021/05/01 01:22:47;;;;;;;46.80;29.90;;;;;;;8.65;70.12;96271.91;5033777;28;20457;-67
2021/05/01 01:25:13;;;;;;;46.53;30.10;;;;;;;9.06;70.01;96266.69;5035296;28;20533;-66
2021/05/01 01:27:39;;;;;;;49.40;30.77;;;;;;;9.14;69.68;96263.25;5033834;28;20211;-66
2021/05/01 01:30:06;;;;;;;50.07;31.47;;;;;;;8.98;69.21;96267.50;5034188;28;20928;-67
2021/05/01 01:32:32;;;;;;;47.80;32.23;;;;;;;8.92;69.67;96268.16;5034572;28;20454;-68
2021/05/01 01:34:57;;;;;;;50.37;32.50;;;;;;;8.57;71.16;96264.88;5034838;28;20877;-67
2021/05/01 01:37:23;;;;;;;50.00;32.60;;;;;;;8.97;70.14;96265.88;5034417;28;20278;-67
2021/05/01 01:39:48;;;;;;;48.03;29.70;;;;;;;9.14;69.45;96261.41;5034675;28;20191;-66
2021/05/01 01:42:14;;;;;;;53.30;32.83;;;;;;;9.27;69.13;96266.16;5034583;28;20261;-68
2021/05/01 01:44:40;;;;;;;50.40;31.60;;;;;;;9.24;69.09;96263.88;5034107;28;20379;-67
2021/05/01 01:47:05;;;;;;;49.30;32.73;;;;;;;9.18;69.08;96264.53;5033870;28;20183;-67
2021/05/01 01:49:34;;;;;;;58.87;33.60;;;;;;;9.24;68.18;96276.94;5032568;28;20183;-66
2021/05/01 01:52:00;;;;;;;47.00;31.57;;;;;;;9.22;68.04;96284.13;5026192;28;20211;-67
2021/05/01 01:54:25;;;;;;;60.03;33.40;;;;;;;9.32;68.68;96282.16;5034799;28;20515;-67
2021/05/01 01:56:51;;;;;;;55.73;33.90;;;;;;;9.22;68.57;96287.56;5034275;28;20274;-68
2021/05/01 01:59:16;;;;;;;59.70;34.40;;;;;;;9.25;68.07;96275.97;5039685;28;20187;-67
2021/05/01 02:01:42;;;;;;;55.30;34.30;;;;;;;9.25;68.17;96278.56;5032793;28;20701;-67
2021/05/01 02:04:08;;;;;;;49.17;32.33;;;;;;;9.37;68.11;96261.53;5033427;28;20184;-67
2021/05/01 02:06:33;;;;;;;54.53;32.73;;;;;;;9.19;68.22;96263.56;5034028;28;20195;-67
2021/05/01 02:08:59;;;;;;;54.77;34.10;;;;;;;9.40;68.13;96267.44;5032020;28;20246;-67
2021/05/01 02:11:24;;;;;;;53.00;32.50;;;;;;;9.44;67.72;96255.66;5033465;28;20227;-67
2021/05/01 02:13:50;;;;;;;52.47;31.43;;;;;;;9.55;67.67;96260.53;5033955;28;20237;-67
2021/05/01 02:16:15;;;;;;;53.33;31.90;;;;;;;9.55;67.53;96263.13;5034325;28;20188;-67
2021/05/01 02:18:41;;;;;;;51.50;34.07;;;;;;;9.64;67.19;96256.09;5033516;28;20655;-67
2021/05/01 02:21:07;;;;;;;57.20;33.73;;;;;;;9.57;67.57;96270.81;5034070;28;20208;-66
2021/05/01 02:23:33;;;;;;;51.40;34.07;;;;;;;9.56;67.65;96253.47;5033656;28;20196;-67
2021/05/01 02:25:58;;;;;;;50.10;32.27;;;;;;;9.62;67.39;96248.38;5032825;28;20234;-67
2021/05/01 02:28:24;;;;;;;45.97;30.93;;;;;;;9.71;66.99;96250.97;5034142;28;20804;-67
2021/05/01 02:30:49;;;;;;;49.73;31.07;;;;;;;9.78;66.93;96246.69;5033661;28;20222;-67
2021/05/01 02:33:15;;;;;;;46.70;31.93;;;;;;;9.72;66.90;96244.75;5034165;28;20203;-67
2021/05/01 02:35:41;;;;;;;57.93;32.17;;;;;;;9.61;67.94;96238.09;5033168;28;20543;-66
2021/05/01 02:38:08;;;;;;;55.87;33.57;;;;;;;9.66;67.88;96238.38;5033967;28;20195;-67
2021/05/01 02:40:35;;;;;;;47.27;32.50;;;;;;;9.62;67.36;96240.53;5047321;28;20494;-68
2021/05/01 02:43:03;;;;;;;48.60;32.40;;;;;;;9.60;67.76;96236.47;5030043;28;20422;-68
2021/05/01 02:45:28;;;;;;;50.03;33.33;;;;;;;9.56;67.91;96237.78;5039831;28;20433;-67
2021/05/01 02:47:54;;;;;;;54.27;35.17;;;;;;;9.47;67.90;96244.84;5034516;28;21107;-66
2021/05/01 02:50:20;;;;;;;51.00;33.70;;;;;;;9.52;68.22;96237.31;5034340;28;20387;-67
2021/05/01 02:52:46;;;;;;;52.67;33.83;;;;;;;9.41;68.27;96235.88;5034478;28;20261;-66
2021/05/01 02:55:13;;;;;;;56.97;34.17;;;;;;;9.54;68.46;96235.34;5049140;28;20183;-66
2021/05/01 02:57:38;;;;;;;53.47;33.93;;;;;;;9.67;68.07;96227.78;5047853;28;20566;-67
2021/05/01 03:00:10;;;;;;;56.03;33.60;;;;;;;9.76;67.42;96218.09;5047717;28;20435;-66
2021/05/01 03:02:36;;;;;;;54.03;32.93;;;;;;;9.80;67.38;96208.09;5032136;28;20218;-65
2021/05/01 03:05:02;;;;;;;46.33;30.30;;;;;;;9.87;66.71;96203.78;5034171;28;20929;-66
2021/05/01 03:07:28;;;;;;;58.57;33.33;;;;;;;9.65;66.71;96206.19;5033348;28;20249;-67
2021/05/01 03:09:53;;;;;;;51.80;32.60;;;;;;;9.70;67.14;96202.25;5033646;28;20446;-67
2021/05/01 03:12:19;;;;;;;50.87;32.80;;;;;;;9.72;67.35;96200.25;5031827;28;20262;-66
2021/05/01 03:14:45;;;;;;;50.60;33.17;;;;;;;9.75;67.00;96186.84;5048495;28;20215;-66
2021/05/01 03:17:11;;;;;;;55.70;34.90;;;;;;;9.60;67.17;96181.53;5041071;28;20221;-67
2021/05/01 03:19:37;;;;;;;57.87;34.67;;;;;;;9.58;67.54;96194.78;5035177;28;20188;-66
2021/05/01 03:22:03;;;;;;;52.83;33.63;;;;;;;9.64;66.86;96188.88;5033689;28;20510;-65
2021/05/01 03:24:30;;;;;;;54.60;34.70;;;;;;;9.61;67.34;96191.81;5034289;28;20180;-66
2021/05/01 03:26:55;;;;;;;47.00;32.23;;;;;;;9.62;67.15;96200.50;5033951;28;20179;-68
2021/05/01 03:29:21;;;;;;;52.93;33.73;;;;;;;9.66;67.24;96197.38;5032578;28;20441;-67
2021/05/01 03:31:46;;;;;;;57.30;35.77;;;;;;;9.64;66.71;96182.84;5032665;28;20212;-66
2021/05/01 03:34:12;;;;;;;51.53;33.87;;;;;;;9.70;67.01;96176.09;5031660;28;20216;-66
2021/05/01 03:36:37;;;;;;;57.97;35.83;;;;;;;9.62;66.94;96185.59;5032376;28;20183;-67
2021/05/01 03:39:04;;;;;;;49.23;31.17;;;;;;;9.63;66.83;96183.81;5031859;28;20203;-68
2021/05/01 03:41:29;;;;;;;47.97;30.57;;;;;;;9.63;65.92;96192.47;5031952;28;20219;-67
2021/05/01 03:43:55;;;;;;;54.07;35.80;;;;;;;9.33;66.62;96194.06;5032170;28;20422;-67
2021/05/01 03:46:20;;;;;;;56.10;35.37;;;;;;;9.41;67.17;96193.22;5028037;28;20587;-67
2021/05/01 03:48:46;;;;;;;55.50;36.63;;;;;;;9.29;67.63;96185.75;5031855;28;20179;-67
2021/05/01 03:51:11;;;;;;;52.43;34.20;;;;;;;9.36;67.20;96176.22;5031374;28;20287;-66
2021/05/01 03:53:37;;;;;;;57.67;36.80;;;;;;;9.43;66.88;96175.56;5031463;28;20682;-66
2021/05/01 03:56:03;;;;;;;58.57;36.30;;;;;;;9.50;67.30;96179.13;5032219;28;20341;-66
2021/05/01 03:58:28;;;;;;;61.43;37.37;;;;;;;9.66;66.57;96179.06;5031210;28;20176;-66
2021/05/01 04:00:54;;;;;;;59.13;37.40;;;;;;;9.67;67.33;96183.31;5031746;28;20283;-66
2021/05/01 04:03:19;;;;;;;61.30;38.30;;;;;;;9.73;66.57;96186.19;5034649;28;20587;-66
2021/05/01 04:05:45;;;;;;;61.23;38.43;;;;;;;9.80;66.86;96192.41;5031525;28;20187;-65
2021/05/01 04:08:11;;;;;;;55.93;35.93;;;;;;;9.84;66.34;96202.34;5031604;28;20237;-67
2021/05/01 04:10:36;;;;;;;57.97;37.50;;;;;;;9.86;66.32;96202.16;5031565;28;20195;-65
2021/05/01 04:13:02;;;;;;;53.50;35.30;;;;;;;9.83;65.99;96198.09;5030995;28;20204;-66
2021/05/01 04:15:28;;;;;;;56.03;36.97;;;;;;;9.81;66.07;96194.81;5031691;28;20202;-66
2021/05/01 04:17:53;;;;;;;56.70;35.30;;;;;;;9.82;65.97;96206.13;5030022;28;20530;-66
2021/05/01 04:20:19;;;;;;;56.13;37.17;;;;;;;9.71;66.17;96190.78;5031626;28;20434;-66
2021/05/01 04:22:45;;;;;;;59.27;38.20;;;;;;;9.77;66.19;96196.16;5031151;28;20223;-66
2021/05/01 04:25:12;;;;;;;60.17;36.97;;;;;;;9.92;66.28;96201.47;5031756;28;20219;-66
2021/05/01 04:27:38;;;;;;;63.00;37.63;;;;;;;9.82;66.24;96200.88;5031299;28;20183;-66
2021/05/01 04:30:07;;;;;;;59.83;39.23;;;;;;;9.89;66.15;96201.00;5030851;28;20525;-67
2021/05/01 04:32:32;;;;;;;58.77;38.10;;;;;;;9.94;65.61;96203.91;5029773;28;20525;-67
2021/05/01 04:34:58;;;;;;;57.40;36.97;;;;;;;9.89;65.88;96201.81;5031593;28;20546;-66
2021/05/01 04:37:24;;;;;;;60.10;38.53;;;;;;;9.91;66.38;96202.47;5030329;28;20279;-67
2021/05/01 04:39:49;;;;;;;58.33;37.27;;;;;;;9.98;66.16;96203.38;5031589;28;20187;-67
2021/05/01 04:42:15;;;;;;;58.40;36.10;;;;;;;9.98;66.16;96205.22;5032223;28;20621;-65
2021/05/01 04:44:40;;;;;;;57.40;36.47;;;;;;;9.84;66.56;96201.50;5033538;28;20200;-66
2021/05/01 04:47:06;;;;;;;61.00;39.10;;;;;;;9.78;66.35;96199.59;5030494;28;20187;-67
2021/05/01 04:49:32;;;;;;;61.07;36.77;;;;;;;9.68;67.62;96208.47;5031803;28;20278;-66
2021/05/01 04:51:59;;;;;;;66.60;39.70;;;;;;;9.48;69.07;96199.41;5030630;28;20278;-66
2021/05/01 04:54:24;;;;;;;62.23;37.73;;;;;;;9.74;67.91;96193.06;5031048;28;20255;-66
2021/05/01 04:56:50;;;;;;;64.80;38.80;;;;;;;9.87;67.53;96192.53;5030625;28;20425;-66
2021/05/01 04:59:16;;;;;;;60.83;37.67;;;;;;;9.83;68.04;96186.78;5031598;28;20240;-66
2021/05/01 05:01:41;;;;;;;60.03;37.40;;;;;;;9.86;67.66;96191.69;5029541;28;20214;-66
2021/05/01 05:04:07;;;;;;;59.00;36.90;;;;;;;9.77;68.68;96206.63;5031304;28;20211;-67
2021/05/01 05:06:32;;;;;;;63.00;36.53;;;;;;;9.88;67.74;96199.38;5030346;28;20257;-66
2021/05/01 05:09:00;;;;;;;64.00;38.60;;;;;;;9.86;67.62;96189.06;5031422;28;20267;-67
2021/05/01 05:11:25;;;;;;;67.00;39.67;;;;;;;9.64;68.30;96188.06;5031180;28;20204;-66
2021/05/01 05:13:51;;;;;;;61.73;38.30;;;;;;;9.82;67.52;96179.97;5031051;28;20797;-66
2021/05/01 05:16:16;;;;;;;67.37;40.07;;;;;;;9.60;68.37;96190.19;5025603;28;20539;-66
2021/05/01 05:18:42;;;;;;;67.07;39.70;;;;;;;9.55;69.54;96189.06;5027869;28;20183;-66
2021/05/01 05:21:08;;;;;;;67.77;40.13;;;;;;;9.76;69.00;96196.31;5030773;28;20299;-66
2021/05/01 05:23:33;;;;;;;61.77;39.90;;;;;;;9.76;68.88;96196.31;5029929;28;20196;-67
2021/05/01 05:25:59;;;;;;;66.93;39.43;;;;;;;9.79;68.64;96198.59;5031714;28;20183;-68
2021/05/01 05:28:24;;;;;;;65.27;39.97;;;;;;;9.89;68.07;96196.59;5031704;28;20271;-66
2021/05/01 05:30:50;;;;;;;68.73;39.93;;;;;;;9.94;67.58;96189.03;5030438;28;20192;-68
2021/05/01 05:33:16;;;;;;;66.10;38.27;;;;;;;10.00;67.65;96184.91;5031479;28;20614;-67
2021/05/01 05:35:41;;;;;;;65.60;39.57;;;;;;;9.92;67.95;96182.34;5030689;28;20195;-67
2021/05/01 05:38:07;;;;;;;63.20;37.97;;;;;;;9.94;67.67;96175.13;5030035;28;20236;-66
2021/05/01 05:40:33;;;;;;;67.30;39.57;;;;;;;9.49;69.70;96174.88;5030283;28;20266;-66
2021/05/01 05:43:00;;;;;;;66.50;39.70;;;;;;;9.59;68.73;96175.47;5030344;28;20211;-67
2021/05/01 05:45:31;;;;;;;64.77;40.27;;;;;;;9.71;68.80;96175.09;5032159;28;20422;-67
2021/05/01 05:47:57;;;;;;;62.90;37.50;;;;;;;9.73;68.56;96175.72;5034139;28;20434;-67
2021/05/01 05:50:22;;;;;;;58.57;38.40;;;;;;;9.40;69.68;96175.91;5034621;28;20437;-69
2021/05/01 05:52:48;;;;;;;58.37;37.90;;;;;;;9.64;68.88;96167.94;5034352;28;20465;-71
2021/05/01 05:55:14;;;;;;;65.80;38.87;;;;;;;9.82;68.31;96179.97;5035415;28;20242;-69
2021/05/01 05:57:46;;;;;;;57.53;38.63;;;;;;;9.61;68.79;96183.97;5031584;28;20199;-70
2021/05/01 06:00:13;;;;;;;60.77;37.80;;;;;;;9.88;67.94;96184.47;5036485;28;20533;-69
2021/05/01 06:02:41;;;;;;;65.60;37.83;;;;;;;9.90;67.47;96182.50;5033773;28;20451;-69
2021/05/01 06:05:13;;;;;;;60.83;36.90;;;;;;;9.94;67.45;96178.56;5034844;28;20505;-69
2021/05/01 06:07:50;;;;;;;64.33;38.53;;;;;;;9.98;66.84;96195.53;5034546;28;20805;-69
2021/05/01 06:10:16;;;;;;;61.50;37.23;;;;;;;9.93;67.31;96181.34;5034772;28;20525;-69
2021/05/01 06:12:44;;;;;;;61.40;38.20;;;;;;;9.91;67.51;96183.31;5034529;28;20526;-69
2021/05/01 06:15:13;;;;;;;65.27;38.07;;;;;;;9.79;68.19;96183.72;5033509;28;20191;-71
2021/05/01 06:17:39;;;;;;;60.87;37.30;;;;;;;9.88;67.71;96181.88;5034043;28;20445;-70
2021/05/01 06:20:05;;;;;;;59.13;36.60;;;;;;;9.99;66.46;96180.66;5033940;28;20773;-69
2021/05/01 06:22:31;;;;;;;55.27;36.23;;;;;;;9.79;67.21;96180.28;5033958;28;20466;-69
2021/05/01 06:24:57;;;;;;;62.13;37.90;;;;;;;9.91;66.88;96184.16;5034080;28;20471;-69
2021/05/01 06:27:22;;;;;;;56.83;37.27;;;;;;;9.94;67.47;96177.75;5034234;28;20434;-70
2021/05/01 06:29:49;;;;;;;58.87;37.37;;;;;;;9.43;69.39;96192.06;5033963;28;20270;-70
2021/05/01 06:32:16;;;;;;;60.90;36.67;;;;;;;9.35;68.79;96198.13;5033872;28;20364;-68
2021/05/01 06:34:47;;;;;;;53.80;34.97;;;;;;;9.57;68.88;96194.94;5033934;28;20461;-69
2021/05/01 06:37:16;;;;;;;56.10;35.03;;;;;;;9.59;66.87;96191.16;5034362;28;20782;-69
2021/05/01 06:39:46;;;;;;;62.03;37.53;;;;;;;9.87;66.89;96177.63;5033101;28;20427;-70
2021/05/01 06:43:02;;;;;;;59.50;36.10;;;;;;;9.52;67.88;96185.00;5034745;28;20446;-70
2021/05/01 06:45:28;;;;;;;55.67;35.07;;;;;;;10.16;66.27;96191.84;4982966;28;20428;-69
2021/05/01 06:47:55;;;;;;;57.70;36.93;;;;;;;10.17;65.66;96198.72;5033290;28;20652;-69
2021/05/01 06:50:22;;;;;;;58.07;35.40;;;;;;;10.22;65.58;96206.84;5032613;28;20466;-68
2021/05/01 06:52:48;;;;;;;52.43;33.77;;;;;;;10.25;64.91;96201.25;5033030;28;20447;-70
2021/05/01 06:55:18;;;;;;;52.70;35.20;;;;;;;10.36;65.31;96201.84;5034061;28;20433;-70
2021/05/01 06:57:46;;;;;;;54.90;34.67;;;;;;;10.28;65.75;96197.47;5031771;28;20208;-70
2021/05/01 07:00:13;;;;;;;54.27;35.87;;;;;;;10.07;65.92;96198.13;5033893;28;20446;-70
2021/05/01 07:02:42;;;;;;;59.00;36.80;;;;;;;10.19;65.79;96199.34;5033647;28;20485;-69
2021/05/01 07:05:14;;;;;;;56.00;35.23;;;;;;;10.22;65.20;96198.19;5034423;28;20490;-69
2021/05/01 07:07:40;;;;;;;52.40;35.17;;;;;;;10.25;65.72;96195.22;5033745;28;20770;-70
2021/05/01 07:10:07;;;;;;;54.00;34.37;;;;;;;10.34;64.82;96191.53;5032416;28;20445;-69
2021/05/01 07:12:34;;;;;;;50.67;33.37;;;;;;;10.28;64.81;96193.06;5033720;28;20299;-67
2021/05/01 07:15:05;;;;;;;52.50;35.10;;;;;;;10.40;64.20;96190.84;4993113;28;20459;-70
2021/05/01 07:17:31;;;;;;;50.93;34.67;;;;;;;10.37;64.18;96187.75;5031687;28;20426;-69
2021/05/01 07:20:00;;;;;;;51.30;33.97;;;;;;;10.29;63.61;96186.84;5041134;28;20900;-69
2021/05/01 07:22:27;;;;;;;48.67;33.47;;;;;;;10.27;64.15;96180.97;5045850;28;20458;-69
2021/05/01 07:24:53;;;;;;;51.07;32.90;;;;;;;10.27;64.72;96177.53;5044860;28;20825;-67
2021/05/01 07:27:19;;;;;;;55.43;34.57;;;;;;;10.35;64.18;96174.00;5034501;28;20423;-69
2021/05/01 07:29:45;;;;;;;54.60;34.40;;;;;;;10.38;64.06;96165.84;5025649;28;20215;-71
2021/05/01 07:32:15;;;;;;;46.27;32.30;;;;;;;10.18;64.23;96163.69;5034544;28;20456;-71
2021/05/01 07:34:50;;;;;;;50.33;31.70;;;;;;;9.83;65.52;96173.72;5042312;28;20462;-69
2021/05/01 07:37:19;;;;;;;45.90;30.43;;;;;;;9.88;65.49;96184.47;5045259;28;20426;-67
2021/05/01 07:39:49;;;;;;;48.30;32.50;;;;;;;10.08;65.03;96189.28;5045321;28;20781;-68
2021/05/01 07:42:16;;;;;;;45.77;33.27;;;;;;;9.94;65.55;96193.44;5035511;28;20449;-70
2021/05/01 07:44:41;;;;;;;48.93;32.87;;;;;;;9.91;65.26;96180.69;5033863;28;20414;-68
2021/05/01 07:47:07;;;;;;;59.97;38.73;;;;;;;9.83;65.67;96171.09;5032145;28;20414;-69
2021/05/01 07:49:33;;;;;;;49.87;32.30;;;;;;;10.14;65.49;96170.25;5033238;28;20541;-70
2021/05/01 07:52:00;;;;;;;56.50;38.00;;;;;;;10.15;65.24;96167.44;5032627;28;20442;-69
2021/05/01 07:54:26;;;;;;;47.30;31.73;;;;;;;10.08;65.15;96171.75;5033201;28;20253;-70
2021/05/01 07:56:51;;;;;;;49.30;31.80;;;;;;;8.79;68.37;96181.63;5035995;28;20423;-70
2021/05/01 07:59:17;;;;;;;47.00;30.53;;;;;;;9.59;67.05;96179.91;5025322;28;20271;-69
2021/05/01 08:01:43;;;;;;;44.47;30.93;;;;;;;9.49;66.92;96186.16;5031822;28;20634;-70
2021/05/01 08:04:10;;;;;;;45.17;30.13;;;;;;;9.31;67.41;96183.78;5033390;28;20187;-69
2021/05/01 08:06:36;;;;;;;46.17;30.37;;;;;;;10.09;65.10;96190.88;5033659;28;20251;-69
2021/05/01 08:09:02;;;;;;;44.20;29.20;;;;;;;10.00;64.91;96182.28;5032517;28;20508;-70
2021/05/01 08:11:28;;;;;;;42.50;27.97;;;;;;;10.38;63.29;96185.00;5032418;28;20466;-69
2021/05/01 08:13:53;;;;;;;52.43;32.43;;;;;;;9.91;64.66;96189.38;5033567;28;20482;-69
2021/05/01 08:16:19;;;;;;;39.90;28.40;;;;;;;10.04;64.06;96193.22;5033854;28;20179;-68
2021/05/01 08:18:44;;;;;;;44.30;30.93;;;;;;;9.75;64.45;96189.47;5033187;28;20179;-68
2021/05/01 08:21:10;;;;;;;45.33;31.93;;;;;;;9.83;64.66;96189.41;5032170;28;20613;-70
2021/05/01 08:23:36;;;;;;;46.00;31.67;;;;;;;10.06;64.54;96186.03;5032550;28;20187;-68
2021/05/01 08:26:03;;;;;;;40.53;28.93;;;;;;;9.98;65.15;96184.28;5032049;28;20183;-70
2021/05/01 08:28:29;;;;;;;45.10;31.67;;;;;;;9.93;65.09;96179.56;5032941;28;20525;-70
2021/05/01 08:30:55;;;;;;;41.80;29.37;;;;;;;9.91;65.11;96183.31;5032840;28;20826;-68
2021/05/01 08:33:21;;;;;;;42.87;30.43;;;;;;;9.37;66.21;96177.06;5033131;28;20211;-67
2021/05/01 08:35:47;;;;;;;43.70;30.77;;;;;;;10.02;64.43;96184.72;5034681;28;20807;-67
2021/05/01 08:38:13;;;;;;;39.37;26.80;;;;;;;9.37;66.63;96196.16;5032677;28;20179;-68
2021/05/01 08:40:39;;;;;;;44.47;29.47;;;;;;;9.26;67.22;96196.53;5031976;28;20835;-68
2021/05/01 08:43:04;;;;;;;43.20;30.10;;;;;;;9.82;65.83;96208.75;5031554;28;20214;-67
2021/05/01 08:45:32;;;;;;;39.07;27.83;;;;;;;9.68;64.62;96198.00;5031615;28;20194;-66
2021/05/01 08:47:59;;;;;;;40.00;27.63;;;;;;;10.35;63.19;96200.19;5032365;28;20211;-65
2021/05/01 08:50:30;;;;;;;38.27;26.40;;;;;;;10.06;62.93;96197.28;5031754;28;20423;-67
2021/05/01 08:52:57;;;;;;;37.53;26.50;;;;;;;10.01;64.33;96199.63;5031801;28;20450;-67
2021/05/01 08:55:29;;;;;;;40.33;26.83;;;;;;;10.28;63.97;96200.91;5031447;28;20529;-66
2021/05/01 08:57:54;;;;;;;38.67;26.27;;;;;;;10.21;63.58;96189.50;5031242;28;20422;-65
2021/05/01 09:00:21;;;;;;;40.47;27.40;;;;;;;10.25;63.51;96196.03;5031573;28;20453;-66
2021/05/01 09:02:48;;;;;;;41.50;26.60;;;;;;;10.31;63.94;96194.50;5031884;28;20859;-68
2021/05/01 09:05:15;;;;;;;36.83;26.40;;;;;;;9.79;64.74;96199.41;5031837;28;20960;-68
2021/05/01 09:07:46;;;;;;;33.63;24.93;;;;;;;9.90;64.17;96192.97;5030339;28;20431;-66
2021/05/01 09:10:12;;;;;;;35.60;24.57;;;;;;;10.03;63.90;96186.38;5032186;28;20422;-66
2021/05/01 09:12:46;;;;;;;32.43;24.17;;;;;;;9.67;64.92;96188.53;5031310;28;20791;-65
2021/05/01 09:15:17;;;;;;;36.30;25.30;;;;;;;10.28;64.22;96194.84;5030353;28;20462;-64
2021/05/01 09:17:42;;;;;;;36.40;25.20;;;;;;;10.57;63.26;96198.59;5032914;28;20415;-67
2021/05/01 09:20:16;;;;;;;36.90;24.67;;;;;;;11.17;60.91;96188.19;5033378;28;21149;-67
2021/05/01 09:23:02;;;;;;;34.63;25.50;;;;;;;11.58;60.78;96187.72;5031790;28;20215;-67
2021/05/01 09:25:30;;;;;;;30.43;22.40;;;;;;;11.45;59.48;96184.91;5034033;28;20521;-66
2021/05/01 09:28:02;;;;;;;32.53;22.77;;;;;;;11.87;58.09;96182.56;5032945;28;21046;-67
2021/05/01 09:30:30;;;;;;;30.97;22.97;;;;;;;11.63;59.92;96187.16;5034983;28;20454;-66
2021/05/01 09:33:18;;;;;;;33.20;24.03;;;;;;;12.04;58.68;96191.06;5036259;28;20975;-66
2021/05/01 09:35:47;;;;;;;31.30;23.90;;;;;;;12.18;57.32;96197.28;5034191;28;20433;-67
2021/05/01 09:38:13;;;;;;;33.27;25.23;;;;;;;11.77;58.91;96196.81;5035479;28;20426;-66
2021/05/01 09:40:44;;;;;;;33.80;24.03;;;;;;;12.04;58.17;96186.63;5033620;28;20812;-66
2021/05/01 09:43:10;;;;;;;32.10;22.70;;;;;;;11.80;57.64;96183.31;5033498;28;20211;-67
2021/05/01 09:45:37;;;;;;;32.83;23.27;;;;;;;12.33;56.34;96177.03;5033487;28;20791;-66
2021/05/01 09:48:19;;;;;;;29.77;23.40;;;;;;;11.77;57.50;96178.44;5035380;28;20192;-66
2021/05/01 09:50:46;;;;;;;31.00;22.90;;;;;;;11.73;57.63;96173.75;5034350;28;20423;-66
2021/05/01 09:53:17;;;;;;;35.73;24.20;;;;;;;12.19;56.67;96167.38;5034624;28;20470;-66
2021/05/01 09:55:43;;;;;;;34.80;25.60;;;;;;;12.21;57.05;96174.06;5037061;28;20419;-66
2021/05/01 09:58:29;;;;;;;30.33;23.23;;;;;;;12.44;56.22;96165.16;5034748;28;20529;-66
2021/05/01 10:01:21;;;;;;;32.97;22.43;;;;;;;12.26;56.65;96161.19;5032759;28;20480;-66
2021/05/01 10:03:47;;;;;;;32.97;23.43;;;;;;;12.31;57.32;96163.25;5024169;28;20438;-67
2021/05/01 10:06:16;;;;;;;33.57;24.40;;;;;;;12.70;56.32;96164.59;5017683;28;20449;-66
2021/05/01 10:08:42;;;;;;;32.50;24.20;;;;;;;12.57;56.63;96156.59;5029381;28;20599;-65
2021/05/01 10:11:22;;;;;;;33.87;24.13;;;;;;;12.96;54.83;96155.25;5020443;28;20458;-66
2021/05/01 10:13:50;;;;;;;27.60;22.40;;;;;;;12.86;56.27;96165.28;5029381;28;20204;-67
2021/05/01 10:16:17;;;;;;;29.63;23.00;;;;;;;12.65;56.09;96172.22;5034090;28;20476;-66
2021/05/01 10:19:03;;;;;;;32.03;21.63;;;;;;;12.26;55.43;96165.63;5032366;28;20514;-67
2021/05/01 10:21:29;;;;;;;29.03;22.30;;;;;;;12.37;55.91;96167.75;5033747;28;20512;-66
2021/05/01 10:23:56;;;;;;;28.60;22.30;;;;;;;12.94;54.32;96161.69;5033127;28;20426;-67
2021/05/01 10:26:21;;;;;;;29.67;22.07;;;;;;;12.86;54.37;96167.91;5034714;28;20270;-66
2021/05/01 10:28:48;;;;;;;28.70;22.43;;;;;;;11.84;56.71;96168.00;5032178;28;20473;-68
2021/05/01 10:31:17;;;;;;;29.83;23.73;;;;;;;11.90;56.47;96161.19;5033284;28;20598;-66
2021/05/01 10:33:45;;;;;;;33.40;23.90;;;;;;;11.26;58.82;96165.31;5031089;28;20494;-65
2021/05/01 10:36:24;;;;;;;32.50;23.70;;;;;;;11.68;57.07;96167.22;5033741;28;20827;-71
2021/05/01 10:39:01;;;;;;;30.80;22.53;;;;;;;11.65;56.46;96170.25;5030496;28;20422;-65
2021/05/01 10:41:30;;;;;;;29.93;22.70;;;;;;;12.50;54.36;96161.81;5031823;28;20454;-66
2021/05/01 10:43:57;;;;;;;30.13;22.43;;;;;;;11.41;57.83;96153.00;5033491;28;20430;-66
2021/05/01 10:46:28;;;;;;;31.67;23.73;;;;;;;11.93;56.70;96150.34;5033166;28;20445;-68
2021/05/01 10:49:04;;;;;;;31.57;24.10;;;;;;;12.73;54.58;96148.41;5033889;28;20789;-67
2021/05/01 10:51:51;;;;;;;32.10;23.10;;;;;;;12.89;53.76;96157.00;5031758;28;20554;-68
2021/05/01 10:54:20;;;;;;;30.80;23.57;;;;;;;12.48;54.65;96165.59;5031638;28;21006;-68
2021/05/01 10:56:50;;;;;;;33.70;24.47;;;;;;;12.84;53.72;96162.06;5033918;28;20426;-66
2021/05/01 10:59:18;;;;;;;28.83;23.77;;;;;;;12.45;54.37;96164.16;5033800;28;20521;-66
2021/05/01 11:01:48;;;;;;;29.27;23.07;;;;;;;12.55;54.38;96156.78;5033637;28;20450;-67
2021/05/01 11:04:25;;;;;;;36.30;25.07;;;;;;;13.04;53.23;96160.34;5034041;28;20900;-66
2021/05/01 11:06:52;;;;;;;37.30;24.77;;;;;;;13.00;52.99;96145.94;5032382;28;20440;-67
2021/05/01 11:09:31;;;;;;;34.97;25.00;;;;;;;13.49;52.07;96148.63;5049418;28;20462;-67
2021/05/01 11:12:00;;;;;;;34.67;23.97;;;;;;;13.48;51.83;96141.78;5033382;28;20508;-67
2021/05/01 11:14:31;;;;;;;34.13;24.60;;;;;;;13.32;51.89;96140.25;5034632;28;20469;-67
2021/05/01 11:17:16;;;;;;;34.53;25.23;;;;;;;12.94;52.65;96152.00;5033239;28;20441;-67
2021/05/01 11:19:44;;;;;;;36.37;25.17;;;;;;;13.41;52.65;96152.28;5032344;28;20430;-67
2021/05/01 11:22:15;;;;;;;36.20;25.93;;;;;;;13.33;53.31;96155.03;5033629;28;20465;-67
2021/05/01 11:24:42;;;;;;;34.23;25.77;;;;;;;13.25;54.39;96153.38;5033543;28;20433;-69